Time;durP1;ratioP1;P1;durP2;ratioP2;P2;SDS_P1;SDS_P2;PMS_P1;PMS_P2;Temp;Humidity;BMP_temperature;BMP_pressure;BME280_temperature;BME280_humidity;BME280_pressure;Samples;Min_cycle;Max_cycle;Signal;HPM_P1;HPM_P2
2022/04/22 00:00:39;;;;;;;31.77;20.90;;;;;;;;;;5057030;28;20021;-75
2022/04/22 00:03:08;;;;;;;35.35;23.13;;;;;;;;;;5075388;28;20031;-77
2022/04/22 00:05:34;;;;;;;38.95;23.33;;;;;;;;;;5075383;28;20025;-74
2022/04/22 00:07:59;;;;;;;36.55;22.58;;;;;;;;;;5075411;28;20522;-74
2022/04/22 00:10:24;;;;;;;35.35;23.77;;;;;;;;;;5074689;28;20021;-74
2022/04/22 00:12:50;;;;;;;36.70;23.17;;;;;;;;;;5074651;28;20036;-74
2022/04/22 00:15:15;;;;;;;39.00;23.95;;;;;;;;;;5056651;28;20081;-75
2022/04/22 00:17:41;;;;;;;34.58;22.83;;;;;;;;;;5056613;28;20036;-74
2022/04/22 00:20:08;;;;;;;36.42;22.48;;;;;;;;;;5074374;28;20077;-74
2022/04/22 00:22:36;;;;;;;44.42;27.38;;;;;;;;;;5056791;28;20032;-74
2022/04/22 00:25:01;;;;;;;43.25;25.92;;;;;;;;;;5056560;28;20016;-74
2022/04/22 00:27:26;;;;;;;43.42;27.02;;;;;;;;;;5074301;28;20040;-74
2022/04/22 00:29:51;;;;;;;39.25;25.15;;;;;;;;;;5056483;28;20463;-74
2022/04/22 00:32:17;;;;;;;39.40;24.38;;;;;;;;;;5074140;28;20028;-74
2022/04/22 00:34:42;;;;;;;37.00;23.25;;;;;;;;;;5056369;28;20024;-74
2022/04/22 00:37:08;;;;;;;39.85;24.80;;;;;;;;;;5074195;28;20040;-74
2022/04/22 00:39:33;;;;;;;38.60;24.13;;;;;;;;;;5056219;28;20028;-74
2022/04/22 00:42:05;;;;;;;37.15;23.48;;;;;;;;;;5056200;28;20032;-75
2022/04/22 00:44:31;;;;;;;41.20;24.98;;;;;;;;;;5074060;28;20463;-73
2022/04/22 00:46:56;;;;;;;41.17;24.77;;;;;;;;;;5074564;28;20035;-73
2022/04/22 00:49:21;;;;;;;44.63;27.90;;;;;;;;;;5073975;28;20267;-73
2022/04/22 00:51:46;;;;;;;45.93;29.37;;;;;;;;;;5073976;28;20415;-73
2022/04/22 00:54:13;;;;;;;44.60;27.58;;;;;;;;;;5073913;28;20744;-73
2022/04/22 00:56:39;;;;;;;45.00;27.75;;;;;;;;;;5056329;28;20012;-73
2022/04/22 00:59:05;;;;;;;42.78;26.27;;;;;;;;;;5056042;28;20036;-73
2022/04/22 01:01:31;;;;;;;42.17;26.38;;;;;;;;;;5073829;28;20426;-74
2022/04/22 01:12:09;;;;;;;53.03;30.30;;;;;;;;;;5074236;28;20371;-73
2022/04/22 01:14:35;;;;;;;50.00;30.65;;;;;;;;;;5073680;28;20017;-73
2022/04/22 01:17:01;;;;;;;38.88;24.33;;;;;;;;;;5073565;28;20039;-73
2022/04/22 01:19:26;;;;;;;54.78;31.63;;;;;;;;;;5073865;28;20055;-73
2022/04/22 01:21:51;;;;;;;79.93;43.35;;;;;;;;;;5073819;28;20028;-72
2022/04/22 01:24:16;;;;;;;52.40;32.55;;;;;;;;;;5055632;28;20021;-77
2022/04/22 01:26:42;;;;;;;56.88;33.28;;;;;;;;;;5073740;28;20139;-78
2022/04/22 01:29:08;;;;;;;53.40;31.83;;;;;;;;;;5073520;28;20471;-77
2022/04/22 01:31:33;;;;;;;65.05;35.45;;;;;;;;;;5054954;28;20029;-77
2022/04/22 01:33:58;;;;;;;63.40;35.95;;;;;;;;;;5073417;28;20036;-78
2022/04/22 01:36:24;;;;;;;50.63;30.90;;;;;;;;;;5073708;28;20035;-76
2022/04/22 01:38:49;;;;;;;44.08;27.95;;;;;;;;;;5055845;28;20024;-80
2022/04/22 01:41:14;;;;;;;47.92;27.50;;;;;;;;;;5073400;28;20037;-74
2022/04/22 01:43:40;;;;;;;39.15;25.00;;;;;;;;;;5073391;28;20035;-74
2022/04/22 01:46:05;;;;;;;41.80;25.75;;;;;;;;;;5073365;28;20040;-74
2022/04/22 01:48:30;;;;;;;39.65;23.52;;;;;;;;;;5073802;28;20077;-75
2022/04/22 01:50:56;;;;;;;33.95;22.75;;;;;;;;;;5055743;28;20142;-74
2022/04/22 01:53:21;;;;;;;35.50;22.38;;;;;;;;;;5055338;28;20372;-72
2022/04/22 01:55:47;;;;;;;40.42;24.50;;;;;;;;;;5072403;28;20089;-69
2022/04/22 01:58:12;;;;;;;34.50;22.40;;;;;;;;;;5073492;28;20024;-69
2022/04/22 02:00:37;;;;;;;34.80;21.80;;;;;;;;;;5073187;28;20033;-72
2022/04/22 02:03:02;;;;;;;42.10;24.40;;;;;;;;;;5073417;28;20029;-73
2022/04/22 02:05:28;;;;;;;38.90;23.27;;;;;;;;;;5073192;28;20071;-71
2022/04/22 02:07:53;;;;;;;39.63;24.67;;;;;;;;;;5073343;28;20028;-71
2022/04/22 02:10:19;;;;;;;41.33;25.45;;;;;;;;;;5073416;28;20369;-75
2022/04/22 02:12:44;;;;;;;43.63;28.23;;;;;;;;;;5055366;28;20012;-77
2022/04/22 02:15:10;;;;;;;43.00;27.50;;;;;;;;;;5073341;28;20402;-74
2022/04/22 02:17:35;;;;;;;38.55;24.98;;;;;;;;;;5073356;28;20021;-78
2022/04/22 02:20:01;;;;;;;46.80;31.63;;;;;;;;;;5072996;28;20459;-73
2022/04/22 02:22:26;;;;;;;38.55;25.35;;;;;;;;;;5073065;28;20048;-74
2022/04/22 02:24:51;;;;;;;29.88;19.88;;;;;;;;;;5073329;28;20028;-73
2022/04/22 02:30:00;;;;;;;37.75;23.25;;;;;;;;;;5072930;28;20262;-75
2022/04/22 02:32:25;;;;;;;34.80;21.25;;;;;;;;;;5072975;28;20036;-77
2022/04/22 02:34:51;;;;;;;29.33;19.27;;;;;;;;;;5073454;28;20032;-74
2022/04/22 02:37:16;;;;;;;26.20;17.73;;;;;;;;;;5055600;28;20029;-76
2022/04/22 02:39:42;;;;;;;30.08;19.10;;;;;;;;;;5055293;28;20116;-80
2022/04/22 02:47:35;;;;;;;32.45;19.45;;;;;;;;;;5076805;28;20040;-74
2022/04/22 02:50:00;;;;;;;32.90;20.30;;;;;;;;;;5058454;28;20008;-73
2022/04/22 02:52:26;;;;;;;30.58;19.63;;;;;;;;;;5058422;28;20025;-73
2022/04/22 02:54:52;;;;;;;28.33;18.42;;;;;;;;;;5058240;28;20365;-72
2022/04/22 02:57:17;;;;;;;28.88;19.20;;;;;;;;;;5076483;28;20051;-74
2022/04/22 02:59:42;;;;;;;33.00;20.80;;;;;;;;;;5076683;28;20030;-74
2022/04/22 03:02:08;;;;;;;32.80;21.08;;;;;;;;;;5076879;28;20029;-83
2022/04/22 03:04:33;;;;;;;30.85;18.83;;;;;;;;;;5076021;28;20383;-82
2022/04/22 03:06:59;;;;;;;31.67;18.92;;;;;;;;;;5076187;28;20024;-82
2022/04/22 03:09:24;;;;;;;39.72;23.90;;;;;;;;;;5075918;28;20517;-77
2022/04/22 03:11:50;;;;;;;39.13;24.30;;;;;;;;;;5074764;28;20037;-83
2022/04/22 03:14:15;;;;;;;42.50;27.58;;;;;;;;;;5058001;28;20025;-83
2022/04/22 03:16:42;;;;;;;38.95;24.67;;;;;;;;;;5076242;28;20032;-82
2022/04/22 03:19:07;;;;;;;36.17;22.25;;;;;;;;;;5075808;28;20376;-83
2022/04/22 03:21:34;;;;;;;32.60;21.63;;;;;;;;;;5075716;28;20028;-75
2022/04/22 03:23:59;;;;;;;38.10;23.65;;;;;;;;;;5076028;28;20428;-74
2022/04/22 03:26:24;;;;;;;33.25;21.65;;;;;;;;;;5075888;28;20110;-72
2022/04/22 03:28:50;;;;;;;34.80;22.08;;;;;;;;;;5075663;28;20055;-73
2022/04/22 03:31:15;;;;;;;32.35;20.90;;;;;;;;;;5075942;28;20038;-71
2022/04/22 03:33:40;;;;;;;32.28;20.35;;;;;;;;;;5075330;28;20036;-72
2022/04/22 03:36:06;;;;;;;31.20;19.73;;;;;;;;;;5057868;28;20127;-72
2022/04/22 03:38:31;;;;;;;32.13;19.85;;;;;;;;;;5075348;28;20033;-75
2022/04/22 03:40:57;;;;;;;30.58;18.85;;;;;;;;;;5075604;28;20118;-72
2022/04/22 03:43:24;;;;;;;27.95;19.42;;;;;;;;;;5075292;28;20025;-72
2022/04/22 03:45:49;;;;;;;29.58;19.63;;;;;;;;;;5075538;28;20357;-72
2022/04/22 03:48:15;;;;;;;36.92;22.98;;;;;;;;;;5075098;28;20057;-72
2022/04/22 03:50:40;;;;;;;37.33;23.50;;;;;;;;;;5075157;28;20032;-73
2022/04/22 03:53:06;;;;;;;34.85;21.98;;;;;;;;;;5074935;28;20020;-73
2022/04/22 03:55:32;;;;;;;36.75;22.65;;;;;;;;;;5075293;28;20028;-72
2022/04/22 03:58:12;;;;;;;42.15;26.38;;;;;;;;;;5074996;28;20028;-72
2022/04/22 04:00:42;;;;;;;41.00;25.40;;;;;;;;;;5075500;28;20372;-71
2022/04/22 04:03:09;;;;;;;38.85;24.65;;;;;;;;;;5056564;28;20021;-71
2022/04/22 04:05:34;;;;;;;35.63;22.38;;;;;;;;;;5056957;28;20028;-75
2022/04/22 04:08:00;;;;;;;35.45;22.48;;;;;;;;;;5075071;28;20106;-76
2022/04/22 04:16:00;;;;;;;32.72;20.55;;;;;;;;;;5075025;28;20360;-77
2022/04/22 04:18:33;;;;;;;31.80;21.02;;;;;;;;;;5057044;28;20456;-75
2022/04/22 04:23:44;;;;;;;32.95;20.88;;;;;;;;;;5074565;28;20036;-73
2022/04/22 04:26:10;;;;;;;34.83;19.85;;;;;;;;;;5039639;28;20698;-73
2022/04/22 04:28:35;;;;;;;33.85;19.52;;;;;;;;;;5074833;28;20047;-74
2022/04/22 04:31:01;;;;;;;30.38;19.45;;;;;;;;;;5056480;28;20031;-77
2022/04/22 04:33:28;;;;;;;28.73;18.73;;;;;;;;;;5056676;28;20503;-76
2022/04/22 04:35:53;;;;;;;27.88;19.33;;;;;;;;;;5074513;28;20354;-76
2022/04/22 04:38:19;;;;;;;31.55;20.30;;;;;;;;;;5055545;28;20056;-76
2022/04/22 04:40:44;;;;;;;33.10;19.92;;;;;;;;;;5072836;28;20027;-74
2022/04/22 04:43:10;;;;;;;28.65;18.88;;;;;;;;;;5071186;28;20063;-74
2022/04/22 04:45:35;;;;;;;32.13;19.02;;;;;;;;;;5053360;28;20020;-76
2022/04/22 04:48:01;;;;;;;31.33;18.65;;;;;;;;;;5070979;28;20135;-76
2022/04/22 04:50:27;;;;;;;34.33;20.50;;;;;;;;;;5070975;28;20027;-75
2022/04/22 04:52:52;;;;;;;26.55;18.85;;;;;;;;;;5070920;28;20028;-76
2022/04/22 04:55:18;;;;;;;24.83;17.30;;;;;;;;;;5070917;28;20048;-77
2022/04/22 04:57:43;;;;;;;28.58;17.67;;;;;;;;;;5072327;28;20751;-77
2022/04/22 05:00:09;;;;;;;25.27;17.13;;;;;;;;;;5073069;28;20024;-74
2022/04/22 05:02:35;;;;;;;25.23;16.05;;;;;;;;;;5072909;28;20020;-77
2022/04/22 05:05:00;;;;;;;23.33;16.42;;;;;;;;;;5071982;28;20119;-77
2022/04/22 05:07:26;;;;;;;21.90;15.25;;;;;;;;;;5072597;28;20024;-77
2022/04/22 05:09:51;;;;;;;25.58;16.10;;;;;;;;;;5054788;28;20480;-78
2022/04/22 05:12:16;;;;;;;23.38;15.98;;;;;;;;;;5072593;28;20035;-78
2022/04/22 05:14:42;;;;;;;26.80;18.48;;;;;;;;;;5072618;28;20021;-76
2022/04/22 05:17:07;;;;;;;34.17;20.63;;;;;;;;;;5054762;28;20075;-75
2022/04/22 05:19:33;;;;;;;32.45;20.45;;;;;;;;;;5072561;28;20384;-75
2022/04/22 05:21:58;;;;;;;34.28;19.25;;;;;;;;;;5072515;28;20078;-75
2022/04/22 05:24:24;;;;;;;34.30;20.35;;;;;;;;;;5072497;28;20016;-74
2022/04/22 05:26:50;;;;;;;42.55;22.20;;;;;;;;;;5072342;28;20037;-74
2022/04/22 05:34:43;;;;;;;33.22;18.90;;;;;;;;;;5072399;28;20088;-74
2022/04/22 05:37:09;;;;;;;33.40;19.08;;;;;;;;;;5072443;28;20072;-75
2022/04/22 05:39:34;;;;;;;35.30;19.90;;;;;;;;;;5072382;28;20037;-76
2022/04/22 05:42:01;;;;;;;40.13;21.00;;;;;;;;;;5072670;28;20063;-73
2022/04/22 05:44:27;;;;;;;36.72;20.73;;;;;;;;;;5072291;28;20028;-79
2022/04/22 05:46:53;;;;;;;33.97;20.45;;;;;;;;;;5072520;28;20044;-79
2022/04/22 05:49:18;;;;;;;38.92;22.48;;;;;;;;;;5054336;28;20031;-79
2022/04/22 05:51:44;;;;;;;31.30;19.38;;;;;;;;;;5072243;28;20053;-78
2022/04/22 05:54:09;;;;;;;42.70;23.42;;;;;;;;;;5072168;28;20033;-77
2022/04/22 05:56:35;;;;;;;39.20;22.73;;;;;;;;;;5072382;28;20081;-79
2022/04/22 05:59:02;;;;;;;40.15;21.13;;;;;;;;;;5072174;28;20036;-79
2022/04/22 06:01:27;;;;;;;34.90;19.67;;;;;;;;;;5072131;28;20028;-79
2022/04/22 06:03:52;;;;;;;39.40;23.88;;;;;;;;;;5072198;28;20032;-80
2022/04/22 06:06:18;;;;;;;39.72;22.77;;;;;;;;;;5072097;28;20020;-80
2022/04/22 06:11:27;;;;;;;33.28;19.98;;;;;;;;;;5072676;28;20052;-75
2022/04/22 06:13:52;;;;;;;31.83;19.37;;;;;;;;;;5073231;28;20017;-75
2022/04/22 06:16:18;;;;;;;35.45;20.63;;;;;;;;;;5055771;28;20275;-75
2022/04/22 06:18:43;;;;;;;40.20;22.05;;;;;;;;;;5076859;28;20017;-68
2022/04/22 06:21:09;;;;;;;33.90;20.20;;;;;;;;;;5059175;28;20060;-78
2022/04/22 06:23:34;;;;;;;35.90;20.13;;;;;;;;;;5057798;28;20032;-78
2022/04/22 06:26:00;;;;;;;35.45;21.35;;;;;;;;;;5075621;28;20064;-78
2022/04/22 06:28:25;;;;;;;38.00;21.40;;;;;;;;;;5057638;28;20107;-78
2022/04/22 06:30:50;;;;;;;38.28;21.75;;;;;;;;;;5075496;28;20524;-78
2022/04/22 06:33:18;;;;;;;31.38;19.67;;;;;;;;;;5044955;28;20104;-79
2022/04/22 06:35:44;;;;;;;33.40;20.02;;;;;;;;;;5055436;28;20029;-78
2022/04/22 06:38:13;;;;;;;33.05;20.55;;;;;;;;;;5055421;28;20468;-79
2022/04/22 06:46:07;;;;;;;38.33;24.48;;;;;;;;;;5037362;28;20041;-78
2022/04/22 06:48:34;;;;;;;52.03;32.13;;;;;;;;;;5037214;28;20132;-78
2022/04/22 06:51:00;;;;;;;40.53;25.85;;;;;;;;;;5055526;28;20017;-78
2022/04/22 06:53:26;;;;;;;40.47;26.27;;;;;;;;;;5055117;28;20056;-78
2022/04/22 06:55:53;;;;;;;44.45;24.77;;;;;;;;;;5055593;28;20549;-78
2022/04/22 06:58:19;;;;;;;38.50;23.10;;;;;;;;;;5056450;28;20483;-78
2022/04/22 07:00:45;;;;;;;37.67;21.63;;;;;;;;;;5056176;28;20052;-78
2022/04/22 07:03:11;;;;;;;34.47;21.50;;;;;;;;;;5038281;28;20029;-78
2022/04/22 07:05:37;;;;;;;37.05;21.20;;;;;;;;;;5056023;28;20455;-79
2022/04/22 07:08:03;;;;;;;40.70;22.80;;;;;;;;;;5055891;28;20028;-78
2022/04/22 07:10:32;;;;;;;45.88;25.83;;;;;;;;;;5054609;28;20021;-79
2022/04/22 07:12:58;;;;;;;40.95;23.90;;;;;;;;;;5038097;28;20100;-77
2022/04/22 07:15:24;;;;;;;43.17;23.25;;;;;;;;;;5055809;28;20544;-78
2022/04/22 07:17:49;;;;;;;39.53;22.67;;;;;;;;;;5038316;28;20479;-78
2022/04/22 07:20:15;;;;;;;49.10;24.58;;;;;;;;;;5056052;28;20033;-78
2022/04/22 07:22:42;;;;;;;46.22;23.90;;;;;;;;;;5056049;28;20116;-78
2022/04/22 07:25:09;;;;;;;43.92;25.35;;;;;;;;;;5056133;28;20484;-78
2022/04/22 07:27:37;;;;;;;61.08;36.58;;;;;;;;;;5036436;28;20419;-78
2022/04/22 07:30:03;;;;;;;48.67;27.67;;;;;;;;;;5053914;28;20057;-78
2022/04/22 07:32:28;;;;;;;49.08;27.27;;;;;;;;;;5054216;28;20055;-78
2022/04/22 07:34:54;;;;;;;43.63;24.40;;;;;;;;;;5054370;28;20108;-78
2022/04/22 07:37:20;;;;;;;139.82;83.30;;;;;;;;;;5036502;28;20530;-78
2022/04/22 07:39:45;;;;;;;64.60;36.75;;;;;;;;;;5054208;28;20056;-78
2022/04/22 07:42:17;;;;;;;71.80;42.65;;;;;;;;;;5054217;28;20036;-78
2022/04/22 07:47:30;;;;;;;52.55;38.10;;;;;;;;;;5053998;28;20369;-78
2022/04/22 07:49:55;;;;;;;52.17;35.03;;;;;;;;;;5054055;28;20150;-78
2022/04/22 07:52:20;;;;;;;66.95;45.78;;;;;;;;;;5053982;28;20112;-78
2022/04/22 07:54:45;;;;;;;63.83;46.55;;;;;;;;;;5054015;28;20033;-76
2022/04/22 07:57:11;;;;;;;55.60;36.53;;;;;;;;;;5053935;28;20021;-76
2022/04/22 07:59:37;;;;;;;46.88;28.05;;;;;;;;;;5053938;28;20055;-76
2022/04/22 08:02:02;;;;;;;54.45;31.65;;;;;;;;;;5053877;28;20040;-76
2022/04/22 08:04:28;;;;;;;44.47;25.08;;;;;;;;;;5053838;28;20112;-76
2022/04/22 08:06:53;;;;;;;55.33;31.85;;;;;;;;;;5053736;28;20108;-76
2022/04/22 08:09:18;;;;;;;51.45;26.23;;;;;;;;;;5035920;28;20460;-76
2022/04/22 08:11:44;;;;;;;47.60;25.98;;;;;;;;;;5035891;28;20108;-72
2022/04/22 08:14:12;;;;;;;50.88;27.88;;;;;;;;;;5035734;28;20040;-71
2022/04/22 08:16:37;;;;;;;48.60;27.33;;;;;;;;;;5053522;28;20470;-83
2022/04/22 08:19:03;;;;;;;46.72;24.77;;;;;;;;;;5035937;28;20024;-83
2022/04/22 08:21:34;;;;;;;42.22;25.70;;;;;;;;;;5036283;28;20044;-83
2022/04/22 08:24:03;;;;;;;47.60;29.10;;;;;;;;;;5053517;28;20033;-84
2022/04/22 08:26:31;;;;;;;50.17;30.80;;;;;;;;;;5053427;28;20027;-84
2022/04/22 08:28:56;;;;;;;49.25;31.15;;;;;;;;;;5053296;28;20469;-84
2022/04/22 08:31:22;;;;;;;48.67;29.35;;;;;;;;;;5035412;28;20024;-83
2022/04/22 08:33:48;;;;;;;47.03;27.45;;;;;;;;;;5035160;28;20032;-84
2022/04/22 08:36:14;;;;;;;46.05;30.60;;;;;;;;;;5053230;28;20061;-84
2022/04/22 08:38:40;;;;;;;48.53;26.17;;;;;;;;;;5053432;28;20044;-84
2022/04/22 08:41:07;;;;;;;43.72;27.13;;;;;;;;;;5036211;28;20498;-84
2022/04/22 08:43:33;;;;;;;60.22;38.13;;;;;;;;;;5054068;28;20104;-84
2022/04/22 08:45:58;;;;;;;55.50;36.40;;;;;;;;;;5054060;28;20067;-85
2022/04/22 08:51:24;;;;;;;49.70;27.77;;;;;;;;;;5053676;28;20029;-83
2022/04/22 08:53:50;;;;;;;53.67;29.75;;;;;;;;;;5036090;28;20021;-82
2022/04/22 08:56:17;;;;;;;46.25;31.20;;;;;;;;;;5053967;28;20025;-82
2022/04/22 08:58:42;;;;;;;47.67;27.30;;;;;;;;;;5053892;28;20464;-77
2022/04/22 09:01:07;;;;;;;38.20;22.83;;;;;;;;;;5053807;28;20036;-78
2022/04/22 09:03:33;;;;;;;51.45;35.20;;;;;;;;;;5036027;28;20432;-83
2022/04/22 09:06:02;;;;;;;43.55;29.58;;;;;;;;;;5053864;28;20040;-84
2022/04/22 09:08:28;;;;;;;32.97;18.40;;;;;;;;;;5053953;28;20027;-84
2022/04/22 09:10:57;;;;;;;23.67;15.85;;;;;;;;;;5053584;28;20040;-84
2022/04/22 09:13:31;;;;;;;26.08;21.15;;;;;;;;;;5053973;28;20048;-82
2022/04/22 09:16:00;;;;;;;22.17;16.02;;;;;;;;;;5053945;28;20131;-83
2022/04/22 09:18:26;;;;;;;25.40;18.98;;;;;;;;;;5020151;28;20056;-83
2022/04/22 09:20:53;;;;;;;22.60;16.02;;;;;;;;;;5053837;28;20112;-83
2022/04/22 09:23:23;;;;;;;29.55;19.77;;;;;;;;;;5019245;28;20124;-84
2022/04/22 09:25:48;;;;;;;22.55;15.60;;;;;;;;;;5053833;28;20431;-82
2022/04/22 09:28:13;;;;;;;24.27;17.05;;;;;;;;;;5035630;28;20025;-83
2022/04/22 09:30:40;;;;;;;24.25;14.90;;;;;;;;;;5035680;28;20075;-83
2022/04/22 09:33:07;;;;;;;26.50;16.67;;;;;;;;;;5053478;28;20037;-83
2022/04/22 09:42:38;;;;;;;23.45;16.75;;;;;;;;;;5035614;28;20044;-84
2022/04/22 09:43:50;;;;;;;14.52;11.32;;;;;;;;;;5053269;28;20029;-85
2022/04/22 09:46:30;;;;;;;12.93;9.40;;;;;;;;;;5053308;28;20058;-85
2022/04/22 09:48:56;;;;;;;;;;;;;;;;;;5053732;28;20040;-85
2022/04/22 09:51:30;;;;;;;21.80;15.52;;;;;;;;;;5036135;28;20267;-83
2022/04/22 09:54:00;;;;;;;15.05;10.57;;;;;;;;;;5057365;28;20523;-82
2022/04/22 09:56:26;;;;;;;14.55;11.05;;;;;;;;;;5040167;28;20037;-84
2022/04/22 09:58:51;;;;;;;13.50;9.32;;;;;;;;;;5057582;28;20104;-85
2022/04/22 10:01:16;;;;;;;20.55;13.43;;;;;;;;;;5057269;28;20094;-85
2022/04/22 10:03:42;;;;;;;12.57;8.57;;;;;;;;;;5039353;28;20472;-85
2022/04/22 10:06:08;;;;;;;12.10;9.68;;;;;;;;;;5039471;28;20037;-85
2022/04/22 10:08:37;;;;;;;14.25;10.90;;;;;;;;;;5057088;28;20435;-84
2022/04/22 10:11:04;;;;;;;26.33;15.38;;;;;;;;;;5039292;28;20025;-84
2022/04/22 10:13:39;;;;;;;19.95;14.85;;;;;;;;;;5057034;28;20040;-84
2022/04/22 10:16:05;;;;;;;24.42;16.42;;;;;;;;;;5039536;28;20037;-82
2022/04/22 10:18:32;;;;;;;14.48;10.73;;;;;;;;;;5057231;28;20557;-85
2022/04/22 10:20:57;;;;;;;19.90;14.30;;;;;;;;;;5056905;28;20029;-85
2022/04/22 10:23:23;;;;;;;18.33;12.77;;;;;;;;;;5039049;28;20379;-85
2022/04/22 10:25:48;;;;;;;64.03;51.13;;;;;;;;;;5057053;28;20033;-85
2022/04/22 10:28:15;;;;;;;33.00;29.58;;;;;;;;;;5056974;28;20025;-86
2022/04/22 10:30:41;;;;;;;12.98;9.10;;;;;;;;;;5056971;28;20021;-86
2022/04/22 10:33:08;;;;;;;24.40;18.40;;;;;;;;;;5056510;28;20111;-86
2022/04/22 10:35:37;;;;;;;15.63;12.15;;;;;;;;;;5056570;28;20365;-86
2022/04/22 10:38:04;;;;;;;14.82;13.25;;;;;;;;;;5056606;28;20119;-86
2022/04/22 10:40:29;;;;;;;10.93;9.13;;;;;;;;;;5039097;28;20041;-86
2022/04/22 10:42:55;;;;;;;25.58;18.45;;;;;;;;;;5056764;28;20021;-86
2022/04/22 10:48:24;;;;;;;35.03;27.73;;;;;;;;;;5056282;28;20119;-87
2022/04/22 10:50:57;;;;;;;72.28;42.88;;;;;;;;;;5038614;28;20071;-87
2022/04/22 10:53:24;;;;;;;10.93;8.98;;;;;;;;;;5056243;28;20032;-84
2022/04/22 10:55:49;;;;;;;42.40;29.48;;;;;;;;;;5056254;28;20013;-87
2022/04/22 10:58:15;;;;;;;34.28;24.60;;;;;;;;;;5038450;28;20033;-87
2022/04/22 11:00:42;;;;;;;39.10;26.13;;;;;;;;;;5056130;28;20106;-84
2022/04/22 11:03:16;;;;;;;22.17;14.73;;;;;;;;;;5054853;28;20036;-79
2022/04/22 11:05:46;;;;;;;12.50;10.07;;;;;;;;;;5056293;28;20086;-75
2022/04/22 11:08:19;;;;;;;33.03;21.25;;;;;;;;;;5055952;28;20461;-76
2022/04/22 11:10:48;;;;;;;10.57;9.00;;;;;;;;;;5056209;28;20074;-75
2022/04/22 11:13:26;;;;;;;9.05;7.90;;;;;;;;;;5055927;28;20028;-75
2022/04/22 11:15:51;;;;;;;8.60;7.63;;;;;;;;;;5055844;28;20123;-75
2022/04/22 11:18:17;;;;;;;19.70;12.30;;;;;;;;;;5056110;28;20101;-75
2022/04/22 11:20:58;;;;;;;13.05;9.35;;;;;;;;;;5055742;28;20029;-75
2022/04/22 11:23:23;;;;;;;11.20;9.43;;;;;;;;;;5055698;28;20112;-75
2022/04/22 11:25:51;;;;;;;11.02;8.45;;;;;;;;;;5038110;28;20056;-79
2022/04/22 11:28:17;;;;;;;46.30;27.50;;;;;;;;;;5055491;28;20039;-80
2022/04/22 11:30:43;;;;;;;9.68;8.15;;;;;;;;;;5055569;28;20028;-75
2022/04/22 11:33:13;;;;;;;43.88;27.20;;;;;;;;;;5055440;28;20037;-75
2022/04/22 11:35:39;;;;;;;10.50;8.88;;;;;;;;;;5055389;28;20033;-75
2022/04/22 11:38:06;;;;;;;8.35;7.03;;;;;;;;;;5054269;28;20024;-75
2022/04/22 11:40:37;;;;;;;30.60;20.92;;;;;;;;;;5054378;28;20083;-75
2022/04/22 11:43:10;;;;;;;22.85;14.93;;;;;;;;;;5054287;28;20091;-75
2022/04/22 11:45:36;;;;;;;19.85;12.55;;;;;;;;;;5054197;28;20424;-75
2022/04/22 11:48:21;;;;;;;10.57;8.07;;;;;;;;;;5036327;28;20025;-75
2022/04/22 11:50:48;;;;;;;10.90;8.65;;;;;;;;;;5036248;28;20116;-76
2022/04/22 11:53:17;;;;;;;31.67;20.42;;;;;;;;;;5054034;28;20049;-76
2022/04/22 11:55:43;;;;;;;30.30;18.80;;;;;;;;;;5054004;28;20056;-75
2022/04/22 11:58:09;;;;;;;46.00;27.52;;;;;;;;;;5036322;28;20063;-76
2022/04/22 12:06:05;;;;;;;36.45;21.80;;;;;;;;;;5053455;28;20029;-75
2022/04/22 12:08:30;;;;;;;18.42;14.45;;;;;;;;;;5035862;28;20035;-75
2022/04/22 12:10:55;;;;;;;28.85;22.52;;;;;;;;;;5053698;28;20104;-75
2022/04/22 12:13:24;;;;;;;39.15;28.48;;;;;;;;;;5053609;28;20384;-75
2022/04/22 12:15:50;;;;;;;47.83;30.30;;;;;;;;;;5053369;28;20531;-75
2022/04/22 12:18:28;;;;;;;30.70;24.65;;;;;;;;;;5053551;28;20025;-75
2022/04/22 12:20:54;;;;;;;29.42;23.27;;;;;;;;;;5053559;28;20104;-75
2022/04/22 12:23:21;;;;;;;25.38;19.00;;;;;;;;;;5053526;28;20533;-76
2022/04/22 12:25:55;;;;;;;33.53;26.23;;;;;;;;;;5053468;28;20064;-75
2022/04/22 12:28:21;;;;;;;24.27;16.90;;;;;;;;;;5035537;28;20037;-76
2022/04/22 12:30:47;;;;;;;38.33;24.35;;;;;;;;;;5053290;28;20043;-76
2022/04/22 12:33:23;;;;;;;20.83;17.45;;;;;;;;;;5053111;28;20108;-76
2022/04/22 12:35:49;;;;;;;29.38;23.67;;;;;;;;;;5053220;28;20028;-76
2022/04/22 12:38:15;;;;;;;19.85;17.67;;;;;;;;;;5053190;28;20103;-76
2022/04/22 12:40:45;;;;;;;13.07;11.70;;;;;;;;;;5053120;28;20086;-76
2022/04/22 12:43:11;;;;;;;;;;;;;;;;;;5052311;28;20542;-75
2022/04/22 12:54:03;;;;;;;32.63;23.98;;;;;;;;;;5052928;28;20040;-78
2022/04/22 12:56:28;;;;;;;58.10;38.55;;;;;;;;;;5052911;28;20029;-78
2022/04/22 12:58:53;;;;;;;31.23;23.25;;;;;;;;;;5052822;28;20033;-78
2022/04/22 13:01:19;;;;;;;30.02;20.98;;;;;;;;;;5052808;28;20029;-78
2022/04/22 13:03:45;;;;;;;25.88;18.17;;;;;;;;;;5052758;28;20419;-78
2022/04/22 13:06:10;;;;;;;31.55;21.38;;;;;;;;;;5052749;28;20024;-78
2022/04/22 13:08:35;;;;;;;25.23;17.10;;;;;;;;;;5052570;28;20483;-79
2022/04/22 13:11:04;;;;;;;23.13;17.07;;;;;;;;;;5053902;28;20025;-78
2022/04/22 13:13:29;;;;;;;173.98;127.10;;;;;;;;;;5054063;28;20259;-78
2022/04/22 13:15:54;;;;;;;85.95;65.72;;;;;;;;;;5036007;28;20132;-78
2022/04/22 13:18:20;;;;;;;44.55;38.35;;;;;;;;;;5053978;28;20036;-78
2022/04/22 13:20:45;;;;;;;47.92;38.88;;;;;;;;;;5053963;28;20043;-81
2022/04/22 13:23:11;;;;;;;90.03;74.60;;;;;;;;;;5053447;28;20132;-81
2022/04/22 13:25:36;;;;;;;39.25;28.98;;;;;;;;;;5045707;28;20063;-81
2022/04/22 13:28:02;;;;;;;23.38;17.00;;;;;;;;;;5035015;28;20028;-80
2022/04/22 13:30:28;;;;;;;24.65;20.02;;;;;;;;;;5035351;28;20036;-80
2022/04/22 13:32:53;;;;;;;36.50;26.00;;;;;;;;;;5052793;28;20472;-79
2022/04/22 13:35:20;;;;;;;15.85;11.57;;;;;;;;;;5034893;28;20350;-79
2022/04/22 13:37:46;;;;;;;50.10;30.08;;;;;;;;;;5053165;28;20096;-79
2022/04/22 13:40:11;;;;;;;17.73;13.13;;;;;;;;;;5052811;28;20112;-79
2022/04/22 13:42:37;;;;;;;30.00;18.88;;;;;;;;;;5051221;28;20071;-79
2022/04/22 13:53:14;;;;;;;26.10;20.73;;;;;;;;;;5048678;28;20083;-78
2022/04/22 13:55:41;;;;;;;35.75;27.77;;;;;;;;;;5048923;28;20025;-78
2022/04/22 13:58:07;;;;;;;113.53;63.03;;;;;;;;;;5048955;28;20033;-78
2022/04/22 14:00:32;;;;;;;69.95;43.42;;;;;;;;;;5048890;28;20435;-78
2022/04/22 14:02:57;;;;;;;93.35;56.72;;;;;;;;;;5049820;28;20079;-78
2022/04/22 14:05:23;;;;;;;81.53;53.33;;;;;;;;;;5050134;28;20052;-79
2022/04/22 14:07:48;;;;;;;50.13;36.55;;;;;;;;;;5048761;28;20477;-78
2022/04/22 14:10:14;;;;;;;43.63;28.40;;;;;;;;;;5049131;28;20032;-78
2022/04/22 14:12:40;;;;;;;31.10;19.08;;;;;;;;;;5030587;28;20025;-78
2022/04/22 14:15:06;;;;;;;63.03;32.70;;;;;;;;;;5030417;28;20393;-78
2022/04/22 14:17:31;;;;;;;18.55;16.70;;;;;;;;;;5048745;28;20040;-78
2022/04/22 14:19:56;;;;;;;10.57;9.68;;;;;;;;;;5048743;28;20036;-78
2022/04/22 14:22:22;;;;;;;6.13;5.63;;;;;;;;;;5048648;28;20048;-79
2022/04/22 14:24:47;;;;;;;7.75;7.10;;;;;;;;;;5048291;28;20025;-78
2022/04/22 14:27:15;;;;;;;4.38;3.50;;;;;;;;;;5048198;28;20066;-78
2022/04/22 14:29:40;;;;;;;5.45;5.00;;;;;;;;;;5030285;28;20357;-78
2022/04/22 14:32:07;;;;;;;5.60;5.20;;;;;;;;;;5048518;28;20029;-78
2022/04/22 14:34:33;;;;;;;5.15;4.63;;;;;;;;;;5048227;28;20056;-78
2022/04/22 14:36:58;;;;;;;5.03;4.53;;;;;;;;;;5048510;28;20052;-78
2022/04/22 14:39:24;;;;;;;3.47;3.28;;;;;;;;;;5052190;28;20110;-78
2022/04/22 14:41:50;;;;;;;6.38;3.38;;;;;;;;;;5054712;28;20033;-82
2022/04/22 14:44:15;;;;;;;3.15;2.95;;;;;;;;;;5055398;28;20048;-75
2022/04/22 14:46:42;;;;;;;6.28;5.68;;;;;;;;;;5055266;28;20025;-78
2022/04/22 14:49:11;;;;;;;8.65;6.10;;;;;;;;;;5055802;28;20033;-79
2022/04/22 14:51:37;;;;;;;5.00;4.60;;;;;;;;;;5055816;28;20033;-79
2022/04/22 14:54:02;;;;;;;3.25;3.05;;;;;;;;;;5038035;28;20469;-79
2022/04/22 14:56:27;;;;;;;8.00;4.03;;;;;;;;;;5055751;28;20021;-79
2022/04/22 14:58:53;;;;;;;3.67;3.38;;;;;;;;;;5038107;28;20520;-79
2022/04/22 15:01:18;;;;;;;3.60;3.33;;;;;;;;;;5054037;28;20032;-79
2022/04/22 15:03:44;;;;;;;3.25;3.05;;;;;;;;;;5051653;28;20373;-79
2022/04/22 15:06:09;;;;;;;4.80;4.40;;;;;;;;;;5051510;28;20369;-79
2022/04/22 15:08:35;;;;;;;4.07;3.30;;;;;;;;;;5051269;28;20051;-79
2022/04/22 15:11:03;;;;;;;3.92;3.72;;;;;;;;;;5033901;28;20070;-79
2022/04/22 15:13:32;;;;;;;3.67;3.35;;;;;;;;;;5033346;28;20033;-82
2022/04/22 15:16:00;;;;;;;4.63;4.20;;;;;;;;;;5055112;28;20485;-79
2022/04/22 15:24:15;;;;;;;8.45;7.75;;;;;;;;;;5055291;28;20033;-78
2022/04/22 15:26:43;;;;;;;7.43;6.05;;;;;;;;;;5055207;28;20032;-78
2022/04/22 15:29:16;;;;;;;9.90;8.90;;;;;;;;;;5052163;28;20028;-78
2022/04/22 15:31:42;;;;;;;10.57;9.68;;;;;;;;;;5051194;28;20491;-78
2022/04/22 15:34:07;;;;;;;19.30;15.00;;;;;;;;;;5050753;28;20081;-78
2022/04/22 15:36:34;;;;;;;29.58;18.50;;;;;;;;;;5033070;28;20029;-78